Latest Weather Observations for St Lawrence

IDQ60801

Issued at 2:33 pm EST Saturday 25 June 2016 (issued every 30 minutes, with the page automatically refreshed every 10 minutes)

About weather observations | Map of weather stations | Latest weather observations for QLD | Other Formats
Station Details ID: 033210 Name: ST LAWRENCE Lat: -22.35 Lon: 149.52 Height: 9.19 m
Data from the previous 72 hours. | See also: Recent months at St Lawrence
Date/Time
EST
Temp
°C
App
Temp
°C
Dew
Point
°C
Rel
Hum
%
Delta-T
°C
Wind Press
QNH
hPa
Press
MSL
hPa
Rain since
9am
mm
Dir  Spd
km/h
Gust
km/h
Spd
kts
Gust
kts
25/02:30pm 21.5 17.6 3.2 30 8.7 SSE 13 22 7 12 1016.5 1016.5 0.0
25/02:00pm 21.6 17.0 3.8 31 8.6 SSE 17 28 9 15 1016.9 1016.9 0.0
25/01:30pm 21.3 17.2 4.4 33 8.2 SSE 15 24 8 13 1017.1 1017.1 0.0
25/01:00pm 21.4 18.0 5.7 36 7.8 SSE 13 20 7 11 1017.7 1017.7 0.0
25/12:30pm 20.4 16.3 4.4 35 7.7 SSE 15 28 8 15 1018.3 1018.3 0.0
25/12:00pm 19.7 15.2 4.2 36 7.4 SSE 17 24 9 13 1019.0 1019.0 0.0
25/11:30am 19.1 14.1 4.8 39 6.9 SSE 20 30 11 16 1019.5 1019.5 0.0
25/11:00am 18.9 14.4 4.3 38 6.9 S 17 24 9 13 1019.8 1019.8 0.0
25/10:30am 18.1 13.7 5.0 42 6.3 S 17 28 9 15 1020.0 1020.0 0.0
25/10:00am 17.6 13.7 5.5 45 5.8 S 15 28 8 15 1020.4 1020.4 0.0
25/09:30am 16.7 12.6 6.2 50 5.1 S 17 26 9 14 1020.5 1020.5 0.0
25/09:00am 15.7 10.1 5.3 50 4.9 S 24 37 13 20 1020.4 1020.4 0.0
25/08:30am 15.2 11.4 6.0 54 4.4 S 15 24 8 13 1020.3 1020.3 0.0
25/08:00am 14.2 11.4 6.8 61 3.6 S 11 19 6 10 1020.2 1020.2 0.0
25/07:30am 13.4 10.6 7.0 65 3.1 S 11 17 6 9 1019.7 1019.7 0.0
25/07:00am 12.8 10.4 7.0 68 2.8 S 9 13 5 7 1019.4 1019.4 0.0
25/06:30am 12.8 10.7 6.8 67 2.9 S 7 13 4 7 1019.0 1019.0 0.0
25/06:00am 13.3 10.9 6.9 65 3.1 S 9 13 5 7 1018.6 1018.6 0.0
25/05:30am 13.9 11.4 6.7 62 3.5 S 9 15 5 8 1018.3 1018.3 0.0
25/05:00am 14.5 11.4 7.3 62 3.5 SSW 13 20 7 11 1017.9 1017.9 0.0
25/04:30am 15.4 11.6 7.7 60 3.8 S 17 26 9 14 1017.6 1017.6 0.0
25/04:00am 16.5 12.4 7.7 56 4.4 S 19 28 10 15 1017.3 1017.3 0.0
25/03:30am 16.9 12.5 9.1 60 4.0 S 22 37 12 20 1016.8 1016.8 0.0
25/03:00am 17.7 14.5 10.1 61 4.0 SSE 17 28 9 15 1016.5 1016.5 0.0
25/02:30am 18.5 15.8 10.3 59 4.4 S 15 24 8 13 1016.3 1016.3 0.0
25/02:00am 17.9 16.8 10.8 63 3.8 SSW 7 13 4 7 1016.4 1016.4 0.0
25/01:30am 18.8 17.8 11.1 61 4.2 SSW 7 11 4 6 1016.5 1016.5 0.0
25/01:00am 17.1 17.1 12.4 74 2.6 SW 4 9 2 5 1016.4 1016.4 0.0
25/12:30am 15.9 16.8 12.8 82 1.7 CALM 0 6 0 3 1016.2 1016.2 0.0
25/12:00am 16.3 17.1 12.5 78 2.1 CALM 0 0 0 0 1016.3 1016.3 0.0
 
Date/Time
EST
Temp
°C
App
Temp
°C
Dew
Point
°C
Rel
Hum
%
Delta-T
°C
Wind Press
QNH
hPa
Press
MSL
hPa
Rain since
9am
mm
Dir  Spd
km/h
Gust
km/h
Spd
kts
Gust
kts
24/11:30pm 17.7 18.1 12.6 72 2.8 SW 2 7 1 4 1016.4 1016.4 0.0
24/11:00pm 18.0 18.2 12.9 72 2.9 WSW 4 7 2 4 1016.4 1016.4 0.0
24/10:30pm 17.7 18.7 13.2 75 2.5 CALM 0 0 0 0 1016.3 1016.3 0.0
24/10:00pm 17.9 18.9 13.2 74 2.6 CALM 0 0 0 0 1016.1 1016.1 0.0
24/09:30pm 18.4 19.4 13.3 72 2.9 CALM 0 0 0 0 1016.0 1016.0 0.0
24/09:00pm 18.7 19.8 13.6 72 2.9 CALM 0 0 0 0 1015.9 1015.9 0.0
24/08:30pm 20.0 20.8 12.7 63 4.1 CALM 0 0 0 0 1015.7 1015.7 0.0
24/08:00pm 20.8 21.8 13.3 62 4.3 CALM 0 6 0 3 1015.4 1015.4 0.0
24/07:30pm 20.7 22.0 14.1 66 3.8 CALM 0 0 0 0 1015.1 1015.1 0.0
24/07:00pm 22.4 23.6 13.7 58 5.0 CALM 0 0 0 0 1014.7 1014.7 0.0
24/06:30pm 23.2 24.0 12.5 51 6.1 CALM 0 6 0 3 1014.3 1014.3 0.0
24/06:00pm 24.8 24.6 11.7 44 7.4 SSW 4 7 2 4 1013.9 1013.9 0.0
24/05:30pm 26.2 26.3 11.5 40 8.4 SSW 2 7 1 4 1013.4 1013.4 0.0
24/05:00pm 27.5 26.0 10.7 35 9.5 SW 9 15 5 8 1013.2 1013.2 0.0
24/04:30pm 28.1 26.9 11.6 36 9.5 SSW 9 19 5 10 1012.8 1012.8 0.0
24/04:00pm 28.3 25.8 10.9 34 9.9 SSW 15 28 8 15 1012.6 1012.6 0.0
24/03:30pm 28.9 26.4 11.0 33 10.2 SSW 15 24 8 13 1012.3 1012.3 0.0
24/03:00pm 29.2 27.0 10.8 32 10.5 SW 13 22 7 12 1012.1 1012.1 0.0
24/02:30pm 29.3 26.8 10.9 32 10.5 SW 15 26 8 14 1012.0 1012.0 0.0
24/02:00pm 29.4 28.5 14.8 41 8.9 SW 13 28 7 15 1012.0 1012.0 0.0
24/01:30pm 29.3 28.6 16.5 46 8.0 SW 15 24 8 13 1012.1 1012.1 0.0
24/01:00pm 28.0 26.8 16.0 48 7.4 WSW 17 22 9 12 1012.6 1012.6 0.0
24/12:30pm 27.6 27.8 18.6 58 5.8 SW 15 22 8 12 1012.9 1012.9 0.0
24/12:00pm 28.0 27.9 18.7 57 6.0 W 17 24 9 13 1013.4 1013.4 0.0
24/11:30am 27.5 26.9 18.5 58 5.8 W 19 28 10 15 1013.9 1013.9 0.0
24/11:00am 27.0 28.0 19.4 63 4.9 WNW 13 28 7 15 1014.6 1014.6 0.0
24/10:30am 26.3 27.4 19.7 67 4.3 NW 13 20 7 11 1014.8 1014.8 0.0
24/10:00am 25.6 27.0 19.5 69 3.9 NW 11 22 6 12 1015.0 1015.0 0.0
24/09:30am 25.1 28.0 19.9 73 3.4 N 4 9 2 5 1015.2 1015.2 0.0
24/09:00am 23.7 26.7 20.0 80 2.4 NNE 4 7 2 4 1015.2 1015.2 0.0
24/08:30am 21.5 25.2 20.0 91 1.0 CALM 0 4 0 2 1015.0 1015.0 0.0
24/08:00am 20.0 22.9 19.0 94 0.6 NNE 2 6 1 3 1014.6 1014.6 0.0
24/07:30am 19.4 22.5 18.7 96 0.4 CALM 0 0 0 0 1014.5 1014.5 0.0
24/07:00am 19.1 22.1 18.4 96 0.4 CALM 0 0 0 0 1014.5 1014.5 0.0
24/06:30am 18.7 21.1 17.9 95 0.5 W 2 7 1 4 1014.1 1014.1 0.0
24/06:00am 18.8 21.6 18.0 95 0.5 CALM 0 0 0 0 1013.3 1013.3 0.0
24/05:30am 19.1 20.9 18.3 95 0.5 SW 6 7 3 4 1013.5 1013.5 0.0
24/05:00am 18.9 21.7 17.9 94 0.6 CALM 0 0 0 0 1013.1 1013.1 0.0
24/04:30am 19.1 21.9 17.9 93 0.7 CALM 0 0 0 0 1013.0 1013.0 0.0
24/04:00am 19.6 22.5 18.1 91 0.9 CALM 0 0 0 0 1012.8 1012.8 0.0
24/03:30am 20.3 23.6 19.0 92 0.8 CALM 0 0 0 0 1012.8 1012.8 0.0
24/03:00am 21.0 24.4 19.3 90 1.1 CALM 0 0 0 0 1012.9 1012.9 0.0
24/02:30am 21.5 25.0 19.6 89 1.2 CALM 0 0 0 0 1013.0 1013.0 0.0
24/02:00am 21.8 24.0 19.7 88 1.3 NE 7 9 4 5 1013.1 1013.1 0.0
24/01:30am 21.8 23.8 19.9 89 1.2 NNE 9 13 5 7 1013.3 1013.3 0.0
24/01:00am 21.7 24.0 19.8 89 1.2 NNE 7 11 4 6 1013.5 1013.5 0.0
24/12:30am 21.3 23.2 19.8 91 1.0 NNE 9 13 5 7 1013.4 1013.4 0.0
24/12:00am 21.3 22.7 19.6 90 1.1 NNE 11 15 6 8 1013.4 1013.4 0.0
 
Date/Time
EST
Temp
°C
App
Temp
°C
Dew
Point
°C
Rel
Hum
%
Delta-T
°C
Wind Press
QNH
hPa
Press
MSL
hPa
Rain since
9am
mm
Dir  Spd
km/h
Gust
km/h
Spd
kts
Gust
kts
23/11:30pm 21.5 25.1 19.8 90 1.1 CALM 0 0 0 0 1014.3 1014.3 0.0
23/11:00pm 21.6 24.1 19.9 90 1.1 NNE 6 7 3 4 1014.2 1014.2 0.0
23/10:30pm 21.8 24.7 19.9 89 1.2 ENE 4 9 2 5 1014.0 1014.0 0.0
23/10:00pm 21.7 23.6 19.8 89 1.2 NE 9 13 5 7 1013.6 1013.6 0.0
23/09:30pm 21.8 25.4 19.7 88 1.3 CALM 0 0 0 0 1014.2 1014.2 0.0
23/09:00pm 21.8 24.2 19.7 88 1.3 NE 6 9 3 5 1014.3 1014.3 0.0
23/08:30pm 21.9 24.3 19.6 87 1.5 NE 6 7 3 4 1014.2 1014.2 0.0
23/08:00pm 21.9 24.1 19.6 87 1.5 NE 7 9 4 5 1013.9 1013.9 0.0
23/07:30pm 21.9 24.3 19.6 87 1.5 NE 6 9 3 5 1013.8 1013.8 0.0
23/07:00pm 21.9 24.1 19.6 87 1.5 NNE 7 11 4 6 1013.5 1013.5 0.0
23/06:30pm 21.9 23.3 19.6 87 1.5 NNE 11 13 6 7 1013.0 1013.0 0.0
23/06:00pm 21.9 23.2 19.3 85 1.7 NNE 11 15 6 8 1012.5 1012.5 0.0
23/05:30pm 21.9 22.7 19.1 84 1.8 NE 13 17 7 9 1012.0 1012.0 0.0
23/05:00pm 22.4 22.7 18.8 80 2.3 NNE 15 20 8 11 1011.7 1011.7 0.0
23/04:30pm 23.1 23.7 18.6 76 2.8 NE 13 19 7 10 1011.6 1011.6 0.0
23/04:00pm 23.6 23.8 18.5 73 3.2 NE 15 20 8 11 1011.7 1011.7 0.0
23/03:30pm 24.0 24.2 18.6 72 3.4 NE 15 20 8 11 1011.6 1011.6 0.0
23/03:00pm 23.6 23.8 18.5 73 3.2 NE 15 20 8 11 1011.7 1011.7 0.0
23/02:30pm 23.8 23.2 18.4 72 3.4 NE 19 26 10 14 1011.9 1011.9 0.0
23/02:00pm 24.4 24.3 18.8 71 3.6 NE 17 28 9 15 1012.3 1012.3 0.0
23/01:30pm 24.1 24.2 18.3 70 3.7 NNE 15 22 8 12 1013.0 1013.0 0.0
23/01:00pm 24.1 24.3 18.5 71 3.5 NE 15 22 8 12 1013.4 1013.4 0.0
23/12:30pm 24.3 24.9 18.7 71 3.6 NE 13 19 7 10 1013.9 1013.9 0.0
23/12:00pm 22.9 23.9 17.8 73 3.2 ENE 9 15 5 8 1014.6 1014.6 0.0
23/11:30am 23.1 24.0 17.6 71 3.4 NE 9 15 5 8 1015.1 1015.1 0.0
23/11:00am 22.1 23.2 17.0 73 3.1 NE 7 11 4 6 1015.4 1015.4 0.0
23/10:30am 22.4 23.6 16.9 71 3.4 NNE 6 11 3 6 1015.7 1015.7 0.0
23/10:00am 21.4 23.4 17.0 76 2.7 SSE 2 6 1 3 1015.8 1015.8 0.0
23/09:30am 18.8 20.0 16.0 84 1.7 SSW 4 7 2 4 1016.2 1016.2 0.0
23/09:00am 16.6 18.5 15.8 95 0.5 CALM 0 6 0 3 1016.2 1016.2 0.0
23/08:30am 15.8 16.7 15.2 96 0.3 WSW 4 9 2 5 1016.0 1016.0 0.0
23/08:00am 15.0 16.0 14.4 96 0.3 W 2 7 1 4 1015.8 1015.8 0.0
23/07:30am 14.7 14.8 13.9 95 0.4 SW 6 9 3 5 1015.6 1015.6 0.0
23/07:00am 14.6 14.6 13.6 94 0.6 SSW 6 9 3 5 1015.4 1015.4 0.0
23/06:30am 13.6 13.1 12.7 94 0.5 SSW 7 11 4 6 1015.0 1015.0 0.0
23/06:00am 13.0 13.7 12.1 94 0.5 CALM 0 6 0 3 1014.7 1014.7 0.0
23/05:30am 12.6 13.1 11.5 93 0.6 CALM 0 0 0 0 1014.4 1014.4 0.0
23/05:00am 13.0 12.5 11.9 93 0.6 SW 6 7 3 4 1014.4 1014.4 0.0
23/04:30am 12.8 13.3 11.5 92 0.7 CALM 0 0 0 0 1014.2 1014.2 0.0
23/04:00am 13.1 12.0 11.8 92 0.7 S 9 13 5 7 1014.5 1014.5 0.0
23/03:30am 12.9 13.0 11.6 92 0.7 SW 2 6 1 3 1014.4 1014.4 0.0
23/03:00am 13.6 13.1 12.2 91 0.8 SW 6 7 3 4 1014.3 1014.3 0.0
23/02:30am 13.7 14.0 12.1 90 0.9 WNW 2 6 1 3 1014.2 1014.2 0.0
23/02:00am 14.4 14.1 12.6 89 1.0 SSE 6 9 3 5 1014.4 1014.4 0.0
23/01:30am 14.2 13.8 12.9 92 0.7 S 7 11 4 6 1014.6 1014.6 0.0
23/01:00am 14.5 15.1 13.2 92 0.7 S 2 9 1 5 1014.6 1014.6 0.0
23/12:30am 14.5 15.4 13.0 91 0.8 CALM 0 0 0 0 1014.6 1014.6 0.0
23/12:00am 14.3 14.8 12.9 91 0.8 SW 2 4 1 2 1014.7 1014.7 0.0
 
Date/Time
EST
Temp
°C
App
Temp
°C
Dew
Point
°C
Rel
Hum
%
Delta-T
°C
Wind Press
QNH
hPa
Press
MSL
hPa
Rain since
9am
mm
Dir  Spd
km/h
Gust
km/h
Spd
kts
Gust
kts
22/11:30pm 14.7 15.3 13.2 91 0.8 SSE 2 7 1 4 1014.9 1014.9 0.0
22/11:00pm 14.6 15.5 13.0 90 0.9 CALM 0 0 0 0 1015.0 1015.0 0.0
22/10:30pm 15.1 16.1 13.3 89 1.0 CALM 0 0 0 0 1015.2 1015.2 0.0
22/10:00pm 15.0 15.6 13.0 88 1.1 SW 2 7 1 4 1015.2 1015.2 0.0
22/09:30pm 15.9 17.1 13.7 87 1.2 CALM 0 0 0 0 1015.0 1015.0 0.0
22/09:00pm 16.1 17.2 13.4 84 1.5 CALM 0 0 0 0 1015.0 1015.0 0.0
22/08:30pm 16.9 18.2 14.0 83 1.6 CALM 0 0 0 0 1014.9 1014.9 0.0
22/08:00pm 18.0 19.4 14.3 79 2.1 CALM 0 0 0 0 1014.6 1014.6 0.0
22/07:30pm 18.3 19.5 13.8 75 2.6 CALM 0 2 0 1 1014.1 1014.1 0.0
22/07:00pm 18.7 19.7 13.3 71 3.1 CALM 0 4 0 2 1013.8 1013.8 0.0
22/06:30pm 20.1 20.1 13.6 66 3.7 NE 6 7 3 4 1013.5 1013.5 0.0
22/06:00pm 20.8 20.5 13.3 62 4.3 NE 7 11 4 6 1013.1 1013.1 0.0
22/05:30pm 21.4 20.5 13.6 61 4.5 NNE 11 15 6 8 1012.8 1012.8 0.0
22/05:00pm 22.8 22.5 14.4 59 4.9 NNE 9 13 5 7 1012.5 1012.5 0.0
22/04:30pm 23.7 22.7 14.7 57 5.3 NE 13 17 7 9 1012.2 1012.2 0.0
22/04:00pm 24.5 23.7 15.1 55 5.6 NE 13 17 7 9 1011.9 1011.9 0.0
22/03:30pm 25.1 23.9 13.9 49 6.6 NE 13 17 7 9 1012.0 1012.0 0.0
22/03:00pm 25.4 24.2 15.1 53 6.2 NE 15 19 8 10 1012.0 1012.0 0.0

Other Formats:

Comma delimited format used in spreadsheet applications
http://www.bom.gov.au/fwo/IDQ60801/IDQ60801.95369.axf

JavaScript Object Notation format (JSON) in row-major order
http://www.bom.gov.au/fwo/IDQ60801/IDQ60801.95369.json